createdAt,value
2023-02-06T00:01:48.928Z,20.03
2023-02-06T00:04:10.466Z,23.93
2023-02-06T00:06:32.301Z,18.93
2023-02-06T00:08:53.744Z,20.30
2023-02-06T00:11:16.915Z,36.03
2023-02-06T00:13:38.669Z,26.87
2023-02-06T00:16:00.385Z,21.30
2023-02-06T00:18:21.828Z,20.00
2023-02-06T00:20:43.267Z,20.37
2023-02-06T00:23:05.170Z,19.60
2023-02-06T00:25:26.601Z,15.83
2023-02-06T00:27:48.088Z,19.07
2023-02-06T00:30:09.900Z,19.70
2023-02-06T00:32:31.433Z,25.87
2023-02-06T00:34:52.858Z,22.07
2023-02-06T00:37:14.772Z,24.90
2023-02-06T00:39:36.247Z,28.17
2023-02-06T00:41:57.666Z,33.80
2023-02-06T00:44:19.149Z,24.93
2023-02-06T00:46:40.660Z,22.57
2023-02-06T00:49:02.221Z,27.23
2023-02-06T00:51:23.676Z,23.63
2023-02-06T00:53:45.271Z,27.50
2023-02-06T00:56:06.868Z,28.13
2023-02-06T00:58:28.298Z,27.87
2023-02-06T01:00:49.902Z,31.33
2023-02-06T01:03:11.505Z,26.37
2023-02-06T01:05:33.049Z,16.10
2023-02-06T01:07:54.630Z,18.50
2023-02-06T01:10:16.382Z,16.27
2023-02-06T01:12:37.901Z,17.10
2023-02-06T01:14:59.418Z,17.87
2023-02-06T01:17:20.870Z,36.53
2023-02-06T01:19:42.311Z,28.27
2023-02-06T01:22:04.141Z,22.43
2023-02-06T01:24:25.575Z,15.30
2023-02-06T01:26:46.993Z,19.40
2023-02-06T01:29:08.433Z,18.43
2023-02-06T01:31:31.171Z,19.50
2023-02-06T01:33:52.844Z,16.13
2023-02-06T01:36:14.817Z,19.23
2023-02-06T01:38:36.391Z,19.07
2023-02-06T01:40:59.416Z,23.13
2023-02-06T01:43:20.882Z,18.23
2023-02-06T01:45:44.083Z,23.17
2023-02-06T01:48:10.341Z,21.93
2023-02-06T01:50:34.061Z,19.17
2023-02-06T01:52:55.739Z,21.00
2023-02-06T01:55:17.711Z,21.23
2023-02-06T01:57:40.258Z,17.37
2023-02-06T02:00:07.520Z,20.60
2023-02-06T02:02:29.526Z,22.17
2023-02-06T02:04:51.065Z,19.00
2023-02-06T02:07:28.712Z,20.03
2023-02-06T02:09:50.172Z,19.07
2023-02-06T02:12:11.878Z,17.83
2023-02-06T02:14:33.960Z,25.73
2023-02-06T02:17:20.391Z,21.73
2023-02-06T02:20:11.095Z,19.73
2023-02-06T02:22:55.169Z,22.63
2023-02-06T02:25:22.290Z,19.23
2023-02-06T02:28:05.757Z,18.47
2023-02-06T02:30:59.339Z,28.00
2023-02-06T02:33:27.025Z,19.10
2023-02-06T02:35:59.984Z,20.47
2023-02-06T02:38:50.567Z,22.93
2023-02-06T02:41:27.100Z,23.83
2023-02-06T02:44:10.958Z,22.70
2023-02-06T02:46:40.352Z,27.13
2023-02-06T02:49:10.844Z,19.13
2023-02-06T02:51:33.996Z,27.03
2023-02-06T02:53:58.548Z,25.77
2023-02-06T02:56:23.080Z,24.90
2023-02-06T02:58:47.878Z,27.43
2023-02-06T03:01:14.112Z,25.40
2023-02-06T03:03:38.716Z,27.53
2023-02-06T03:06:30.580Z,22.80
2023-02-06T03:09:13.044Z,21.07
2023-02-06T03:11:41.324Z,22.93
2023-02-06T03:14:05.505Z,24.27
2023-02-06T03:16:35.412Z,21.80
2023-02-06T03:19:14.440Z,24.07
2023-02-06T03:21:38.014Z,23.53
2023-02-06T03:24:03.548Z,28.07
2023-02-06T03:26:28.742Z,30.23
2023-02-06T03:28:55.194Z,34.50
2023-02-06T03:31:23.679Z,29.10
2023-02-06T03:33:54.575Z,32.73
2023-02-06T03:36:18.385Z,24.87
2023-02-06T03:38:40.036Z,27.13
2023-02-06T03:41:02.036Z,28.77
2023-02-06T03:43:26.138Z,27.87
2023-02-06T03:45:52.130Z,25.20
2023-02-06T03:48:42.113Z,28.37
2023-02-06T03:51:12.271Z,28.93
2023-02-06T03:53:35.251Z,40.50
2023-02-06T03:56:02.214Z,41.87
2023-02-06T03:58:24.698Z,36.93
2023-02-06T04:00:48.028Z,35.83
2023-02-06T04:03:11.045Z,33.50
2023-02-06T04:05:32.597Z,30.57
2023-02-06T04:07:56.511Z,37.20
2023-02-06T04:10:18.525Z,37.10
2023-02-06T04:12:40.040Z,38.10
2023-02-06T04:15:01.644Z,34.43
2023-02-06T04:17:40.763Z,29.37
2023-02-06T04:20:06.430Z,35.23
2023-02-06T04:22:27.872Z,30.77
2023-02-06T04:24:49.906Z,28.20
2023-02-06T04:27:14.634Z,27.17
2023-02-06T04:29:36.142Z,34.37
2023-02-06T04:32:02.149Z,30.97
2023-02-06T04:34:23.726Z,30.97
2023-02-06T04:36:45.157Z,29.90
2023-02-06T04:39:07.344Z,26.83
2023-02-06T04:41:28.823Z,33.83
2023-02-06T04:43:50.271Z,28.43
2023-02-06T04:46:11.742Z,27.57
2023-02-06T04:48:36.240Z,26.23
2023-02-06T04:50:57.782Z,25.57
2023-02-06T04:53:19.285Z,28.40
2023-02-06T04:55:40.791Z,24.40
2023-02-06T04:58:02.258Z,23.47
2023-02-06T05:00:23.887Z,27.77
2023-02-06T05:02:45.373Z,27.23
2023-02-06T05:05:08.474Z,32.43
2023-02-06T05:07:29.985Z,30.33
2023-02-06T05:09:51.424Z,29.10
2023-02-06T05:12:14.338Z,27.27
2023-02-06T05:14:35.861Z,29.13
2023-02-06T05:16:57.282Z,25.50
2023-02-06T05:19:18.754Z,26.33
2023-02-06T05:21:40.382Z,23.93
2023-02-06T05:24:01.840Z,23.60
2023-02-06T05:26:23.604Z,25.30
2023-02-06T05:28:45.096Z,23.20
2023-02-06T05:31:07.006Z,24.97
2023-02-06T05:33:29.201Z,19.90
2023-02-06T05:35:50.645Z,23.17
2023-02-06T05:38:12.156Z,21.33
2023-02-06T05:40:33.611Z,18.13
2023-02-06T05:42:55.046Z,20.37
2023-02-06T05:45:16.634Z,21.03
2023-02-06T05:47:38.056Z,23.00
2023-02-06T05:49:59.507Z,25.00
2023-02-06T05:52:20.960Z,22.40
2023-02-06T05:54:42.444Z,20.90
2023-02-06T05:57:04.292Z,20.40
2023-02-06T05:59:25.979Z,18.87
2023-02-06T06:01:47.433Z,18.23
2023-02-06T06:04:09.032Z,21.67
2023-02-06T06:06:30.561Z,17.93
2023-02-06T06:08:51.984Z,16.70
2023-02-06T06:11:14.110Z,15.40
2023-02-06T06:13:35.596Z,17.43
2023-02-06T06:15:57.119Z,16.83
2023-02-06T06:18:19.711Z,17.47
2023-02-06T06:20:41.963Z,17.60
2023-02-06T06:23:03.391Z,15.20
2023-02-06T06:25:24.850Z,15.83
2023-02-06T06:27:46.480Z,16.70
2023-02-06T06:30:08.988Z,15.77
2023-02-06T06:32:30.422Z,15.10
2023-02-06T06:34:51.833Z,14.53
2023-02-06T06:37:13.299Z,16.23
2023-02-06T06:39:34.722Z,18.10
2023-02-06T06:41:56.172Z,15.47
2023-02-06T06:44:17.709Z,15.33
2023-02-06T06:46:39.166Z,17.80
2023-02-06T06:49:01.481Z,16.63
2023-02-06T06:51:23.726Z,16.47
2023-02-06T06:53:45.141Z,19.63
2023-02-06T06:56:08.655Z,16.13
2023-02-06T06:58:30.091Z,15.10
2023-02-06T07:00:53.583Z,14.83
2023-02-06T07:03:15.099Z,12.30
2023-02-06T07:05:36.997Z,15.00
2023-02-06T07:07:58.717Z,16.63
2023-02-06T07:10:20.302Z,14.93
2023-02-06T07:12:41.852Z,13.67
2023-02-06T07:15:04.257Z,14.07
2023-02-06T07:17:26.689Z,15.30
2023-02-06T07:19:49.278Z,14.93
2023-02-06T07:22:10.729Z,13.27
2023-02-06T07:24:32.161Z,11.70
2023-02-06T07:26:53.681Z,13.33
2023-02-06T07:29:15.124Z,11.80
2023-02-06T07:31:36.659Z,14.37
2023-02-06T07:33:58.117Z,13.43
2023-02-06T07:36:19.641Z,13.33
2023-02-06T07:38:41.662Z,13.27
2023-02-06T07:41:03.559Z,13.33
2023-02-06T07:43:24.984Z,12.47
2023-02-06T07:45:46.528Z,13.57
2023-02-06T07:48:08.460Z,14.27
2023-02-06T07:50:30.077Z,11.80
2023-02-06T07:52:51.494Z,11.67
2023-02-06T07:55:12.929Z,14.03
2023-02-06T07:57:34.437Z,14.80
2023-02-06T07:59:55.978Z,13.80
2023-02-06T08:02:17.449Z,13.33
2023-02-06T08:04:38.967Z,14.20
2023-02-06T08:07:01.638Z,14.27
2023-02-06T08:09:23.058Z,15.70
2023-02-06T08:11:44.713Z,32.10
2023-02-06T08:14:06.215Z,28.83
2023-02-06T08:16:27.733Z,14.80
2023-02-06T08:18:49.563Z,12.90
2023-02-06T08:21:14.067Z,15.00
2023-02-06T08:23:35.571Z,15.50
2023-02-06T08:26:09.454Z,12.67
2023-02-06T08:28:32.247Z,11.37
2023-02-06T08:30:53.727Z,12.40
2023-02-06T08:33:15.244Z,10.70
2023-02-06T08:35:36.900Z,12.60
2023-02-06T08:37:58.532Z,14.17
2023-02-06T08:40:21.188Z,11.37
2023-02-06T08:42:42.712Z,12.53
2023-02-06T08:45:04.722Z,13.00
2023-02-06T08:47:26.208Z,11.70
2023-02-06T08:49:50.692Z,12.13
2023-02-06T08:52:12.224Z,13.07
2023-02-06T08:54:35.947Z,12.30
2023-02-06T08:57:01.003Z,12.80
2023-02-06T08:59:22.788Z,15.90
2023-02-06T09:01:45.691Z,11.93
2023-02-06T09:04:09.894Z,11.50
2023-02-06T09:06:31.378Z,15.50
2023-02-06T09:08:53.543Z,13.50
2023-02-06T09:11:17.465Z,9.83
2023-02-06T09:13:39.419Z,11.57
2023-02-06T09:16:00.971Z,11.17
2023-02-06T09:18:22.426Z,11.20
2023-02-06T09:20:46.075Z,11.37
2023-02-06T09:23:07.556Z,11.17
2023-02-06T09:25:28.975Z,10.73
2023-02-06T09:27:50.436Z,9.70
2023-02-06T09:30:13.843Z,10.37
2023-02-06T09:32:35.321Z,11.20
2023-02-06T09:34:56.869Z,10.53
2023-02-06T09:37:18.341Z,14.33
2023-02-06T09:39:39.827Z,9.37
2023-02-06T09:42:16.312Z,7.30
2023-02-06T09:44:46.196Z,10.17
2023-02-06T09:47:31.313Z,9.47
2023-02-06T09:49:58.588Z,7.30
2023-02-06T09:52:47.973Z,10.07
2023-02-06T09:55:32.593Z,13.03
2023-02-06T09:58:16.249Z,10.40
2023-02-06T10:00:56.928Z,8.60
2023-02-06T10:03:50.938Z,10.23
2023-02-06T10:06:27.102Z,9.80
2023-02-06T10:08:59.478Z,9.83
2023-02-06T10:11:37.258Z,12.03
2023-02-06T10:14:02.465Z,9.57
2023-02-06T10:16:33.011Z,7.70
2023-02-06T10:19:01.057Z,7.40
2023-02-06T10:21:25.184Z,7.37
2023-02-06T10:23:55.321Z,19.53
2023-02-06T10:26:18.395Z,11.43
2023-02-06T10:28:40.749Z,12.93
2023-02-06T10:31:13.901Z,47.00
2023-02-06T10:34:03.758Z,28.10
2023-02-06T10:36:40.107Z,23.03
2023-02-06T10:39:20.900Z,9.90
2023-02-06T10:42:14.637Z,10.37
2023-02-06T10:45:17.100Z,15.40
2023-02-06T10:47:50.823Z,13.87
2023-02-06T10:50:25.633Z,10.67
2023-02-06T10:52:48.151Z,11.43
2023-02-06T10:55:23.363Z,6.60
2023-02-06T10:57:47.280Z,8.33
2023-02-06T11:00:24.880Z,6.30
2023-02-06T11:03:06.164Z,8.03
2023-02-06T11:05:30.832Z,8.57
2023-02-06T11:07:55.330Z,7.63
2023-02-06T11:10:22.422Z,7.23
2023-02-06T11:12:49.341Z,9.77
2023-02-06T11:15:27.657Z,6.13
2023-02-06T11:17:51.445Z,8.87
2023-02-06T11:20:21.813Z,8.73
2023-02-06T11:22:52.381Z,10.60
2023-02-06T11:25:25.494Z,8.77
2023-02-06T11:27:47.296Z,10.17
2023-02-06T11:30:23.675Z,8.97
2023-02-06T11:32:59.047Z,10.47
2023-02-06T11:35:35.113Z,8.33
2023-02-06T11:38:07.989Z,8.67
2023-02-06T11:40:29.683Z,7.87
2023-02-06T11:43:06.856Z,10.47
2023-02-06T11:45:33.138Z,6.53
2023-02-06T11:47:54.667Z,11.33
2023-02-06T11:50:34.133Z,11.57
2023-02-06T11:53:25.109Z,11.07
2023-02-06T11:55:59.091Z,11.40
2023-02-06T11:58:24.716Z,13.37
2023-02-06T12:00:51.871Z,10.17
2023-02-06T12:03:55.180Z,10.07
2023-02-06T12:06:36.870Z,9.70
2023-02-06T12:09:05.570Z,9.90
2023-02-06T12:11:32.940Z,10.17
2023-02-06T12:14:04.921Z,9.80
2023-02-06T12:16:27.718Z,9.73
2023-02-06T12:18:54.028Z,8.63
2023-02-06T12:21:24.579Z,9.63
2023-02-06T12:23:58.049Z,7.17
2023-02-06T12:26:23.110Z,8.77
2023-02-06T12:29:22.706Z,10.70
2023-02-06T12:31:59.281Z,6.50
2023-02-06T12:34:25.565Z,9.80
2023-02-06T12:37:00.081Z,6.73
2023-02-06T12:39:23.153Z,7.00
2023-02-06T12:42:22.275Z,7.47
2023-02-06T12:44:53.710Z,7.20
2023-02-06T12:47:40.839Z,9.97
2023-02-06T12:50:15.302Z,7.03
2023-02-06T12:52:44.787Z,11.57
2023-02-06T12:55:12.293Z,7.23
2023-02-06T12:57:35.410Z,7.03
2023-02-06T13:00:15.407Z,6.50
2023-02-06T13:02:58.851Z,6.10
2023-02-06T13:05:22.730Z,5.63
2023-02-06T13:07:49.325Z,4.80
2023-02-06T13:10:20.971Z,5.23
2023-02-06T13:12:42.446Z,8.50
2023-02-06T13:15:07.208Z,4.93
2023-02-06T13:17:37.887Z,5.53
2023-02-06T13:20:07.187Z,5.67
2023-02-06T13:22:49.401Z,5.87
2023-02-06T13:25:40.305Z,5.93
2023-02-06T13:28:21.850Z,7.87
2023-02-06T13:30:43.405Z,9.10
2023-02-06T13:33:23.725Z,8.83
2023-02-06T13:36:01.115Z,8.47
2023-02-06T13:38:22.497Z,11.23
2023-02-06T13:40:44.014Z,10.43
2023-02-06T13:43:10.041Z,8.77
2023-02-06T13:45:41.645Z,12.20
2023-02-06T13:48:28.403Z,8.67
2023-02-06T13:51:28.072Z,8.00
2023-02-06T13:54:09.362Z,10.00
2023-02-06T13:57:00.756Z,9.60
2023-02-06T13:59:29.195Z,8.57
2023-02-06T14:01:51.531Z,10.37
2023-02-06T14:04:25.067Z,10.13
2023-02-06T14:07:02.250Z,12.03
2023-02-06T14:09:33.112Z,12.07
2023-02-06T14:12:33.038Z,10.93
2023-02-06T14:15:11.325Z,17.30
2023-02-06T14:18:03.512Z,14.90
2023-02-06T14:20:34.638Z,12.50
2023-02-06T14:23:27.287Z,12.47
2023-02-06T14:25:52.707Z,10.63
2023-02-06T14:28:26.793Z,9.73
2023-02-06T14:31:12.818Z,12.87
2023-02-06T14:33:43.126Z,11.80
2023-02-06T14:36:33.591Z,10.50
2023-02-06T14:39:04.333Z,17.00
2023-02-06T14:41:30.078Z,12.47
2023-02-06T14:43:51.737Z,11.93
2023-02-06T14:46:16.791Z,15.33
2023-02-06T14:48:49.534Z,11.67
2023-02-06T14:51:39.294Z,17.07
2023-02-06T14:54:06.712Z,16.70
2023-02-06T14:56:34.236Z,18.13
2023-02-06T14:58:56.230Z,15.37
2023-02-06T15:01:17.641Z,14.10
2023-02-06T15:03:40.234Z,16.03
2023-02-06T15:06:05.881Z,12.37
2023-02-06T15:08:27.349Z,11.07
2023-02-06T15:10:57.556Z,13.87
2023-02-06T15:13:24.205Z,12.07
2023-02-06T15:15:53.980Z,10.93
2023-02-06T15:18:17.939Z,15.50
2023-02-06T15:20:45.252Z,10.37
2023-02-06T15:23:18.046Z,11.20
2023-02-06T15:26:05.604Z,11.47
2023-02-06T15:28:30.973Z,11.10
2023-02-06T15:30:54.869Z,11.20
2023-02-06T15:33:22.678Z,11.03
2023-02-06T15:35:49.573Z,14.03
2023-02-06T15:38:14.258Z,13.53
2023-02-06T15:40:39.157Z,9.80
2023-02-06T15:43:02.949Z,11.90
2023-02-06T15:45:31.013Z,11.20
2023-02-06T15:47:54.248Z,10.50
2023-02-06T15:50:19.897Z,12.97
2023-02-06T15:52:43.025Z,8.90
2023-02-06T15:55:04.978Z,6.60
2023-02-06T15:57:31.461Z,9.00
2023-02-06T15:59:54.164Z,10.83
2023-02-06T16:02:33.170Z,16.00
2023-02-06T16:04:54.994Z,9.17
2023-02-06T16:07:19.785Z,7.87
2023-02-06T16:09:50.183Z,10.33
2023-02-06T16:12:16.432Z,12.80
2023-02-06T16:14:41.195Z,10.10
2023-02-06T16:17:05.487Z,11.90
2023-02-06T16:19:38.316Z,10.27
2023-02-06T16:22:15.213Z,9.03
2023-02-06T16:24:36.880Z,7.13
2023-02-06T16:27:08.390Z,8.27
2023-02-06T16:29:32.497Z,6.30
2023-02-06T16:32:18.086Z,8.57
2023-02-06T16:34:43.827Z,7.93
2023-02-06T16:37:12.010Z,9.53
2023-02-06T16:39:33.426Z,8.57
2023-02-06T16:41:54.934Z,8.60
2023-02-06T16:44:17.136Z,7.27
2023-02-06T16:46:38.974Z,6.93
2023-02-06T16:49:00.484Z,7.00
2023-02-06T16:51:25.737Z,7.87
2023-02-06T16:53:48.610Z,7.67
2023-02-06T16:56:12.925Z,8.83
2023-02-06T16:58:36.014Z,10.00
2023-02-06T17:00:58.074Z,9.43
2023-02-06T17:03:19.576Z,10.80
2023-02-06T17:05:41.696Z,10.23
2023-02-06T17:08:04.009Z,7.80
2023-02-06T17:10:26.414Z,12.93
2023-02-06T17:12:48.290Z,13.10
2023-02-06T17:15:10.357Z,12.83
2023-02-06T17:17:32.126Z,14.07
2023-02-06T17:19:53.910Z,11.30
2023-02-06T17:22:15.689Z,14.00
2023-02-06T17:24:38.443Z,12.60
2023-02-06T17:27:01.539Z,9.10
2023-02-06T17:29:22.970Z,12.37
2023-02-06T17:31:44.417Z,9.10
2023-02-06T17:34:06.251Z,8.60
2023-02-06T17:36:32.405Z,7.53
2023-02-06T17:38:53.857Z,8.73
2023-02-06T17:41:15.279Z,7.67
2023-02-06T17:43:37.496Z,6.37
2023-02-06T17:45:59.066Z,7.27
2023-02-06T17:48:20.596Z,8.53
2023-02-06T17:50:42.416Z,7.10
2023-02-06T17:53:05.907Z,5.40
2023-02-06T17:55:28.347Z,8.33
2023-02-06T17:57:49.971Z,6.90
2023-02-06T18:00:14.711Z,8.97
2023-02-06T18:02:36.761Z,9.17
2023-02-06T18:04:59.903Z,8.20
2023-02-06T18:07:21.642Z,8.87
2023-02-06T18:09:43.129Z,8.90
2023-02-06T18:12:04.718Z,8.33
2023-02-06T18:14:26.311Z,6.97
2023-02-06T18:16:47.951Z,5.77
2023-02-06T18:19:10.493Z,5.73
2023-02-06T18:21:31.967Z,7.93
2023-02-06T18:23:54.365Z,5.20
2023-02-06T18:26:16.275Z,5.80
2023-02-06T18:28:39.325Z,5.03
2023-02-06T18:31:02.197Z,4.07
2023-02-06T18:33:23.925Z,4.33
2023-02-06T18:35:46.575Z,4.20
2023-02-06T18:38:09.959Z,5.30
2023-02-06T18:40:32.940Z,6.33
2023-02-06T18:42:54.696Z,3.40
2023-02-06T18:45:17.022Z,3.47
2023-02-06T18:47:40.049Z,2.80
2023-02-06T18:50:01.631Z,3.67
2023-02-06T18:52:23.219Z,4.07
2023-02-06T18:54:45.138Z,3.10
2023-02-06T18:57:07.058Z,3.80
2023-02-06T18:59:28.655Z,4.30
2023-02-06T19:01:51.957Z,3.17
2023-02-06T19:04:13.784Z,3.30
2023-02-06T19:06:36.609Z,3.40
2023-02-06T19:08:59.018Z,4.47
2023-02-06T19:11:20.456Z,3.93
2023-02-06T19:13:42.779Z,3.87
2023-02-06T19:16:12.082Z,3.60
2023-02-06T19:18:38.691Z,3.83
2023-02-06T19:21:06.491Z,4.90
2023-02-06T19:23:27.968Z,3.97
2023-02-06T19:25:49.379Z,3.90
2023-02-06T19:28:10.876Z,3.93
2023-02-06T19:30:32.439Z,4.73
2023-02-06T19:32:53.942Z,5.73
2023-02-06T19:35:17.195Z,4.47
2023-02-06T19:37:38.787Z,5.40
2023-02-06T19:40:00.246Z,6.30
2023-02-06T19:42:21.671Z,4.07
2023-02-06T19:44:43.470Z,5.57
2023-02-06T19:47:05.034Z,4.37
2023-02-06T19:49:26.974Z,3.60
2023-02-06T19:51:49.012Z,4.27
2023-02-06T19:54:10.538Z,4.17
2023-02-06T19:56:38.318Z,4.17
2023-02-06T19:59:01.836Z,6.53
2023-02-06T20:01:24.508Z,6.90
2023-02-06T20:03:46.573Z,6.07
2023-02-06T20:06:10.847Z,5.30
2023-02-06T20:08:33.270Z,7.37
2023-02-06T20:10:55.512Z,5.37
2023-02-06T20:13:17.049Z,4.97
2023-02-06T20:15:39.163Z,5.23
2023-02-06T20:18:00.589Z,3.17
2023-02-06T20:20:22.119Z,3.57
2023-02-06T20:22:43.551Z,3.20
2023-02-06T20:25:05.335Z,3.47
2023-02-06T20:27:26.826Z,4.10
2023-02-06T20:29:48.274Z,3.90
2023-02-06T20:32:11.036Z,3.57
2023-02-06T20:34:33.392Z,3.80
2023-02-06T20:36:55.612Z,2.87
2023-02-06T20:39:17.704Z,5.93
2023-02-06T20:41:40.244Z,4.33
2023-02-06T20:44:02.354Z,4.50
2023-02-06T20:46:25.148Z,4.50
2023-02-06T20:48:52.069Z,5.10
2023-02-06T20:51:14.707Z,3.30
2023-02-06T20:53:36.169Z,4.10
2023-02-06T20:55:58.165Z,3.77
2023-02-06T20:58:20.306Z,3.87
2023-02-06T21:00:41.756Z,3.63
2023-02-06T21:03:03.803Z,3.80
2023-02-06T21:05:25.912Z,3.10
2023-02-06T21:07:47.393Z,4.30
2023-02-06T21:10:09.229Z,3.37
2023-02-06T21:12:30.680Z,4.80
2023-02-06T21:14:52.160Z,3.90
2023-02-06T21:17:13.593Z,6.60
2023-02-06T21:19:35.968Z,4.30
2023-02-06T21:21:57.468Z,4.87
2023-02-06T21:24:19.031Z,5.63
2023-02-06T21:26:40.550Z,4.60
2023-02-06T21:29:06.028Z,6.73
2023-02-06T21:31:38.133Z,5.17
2023-02-06T21:34:09.051Z,5.50
2023-02-06T21:36:31.620Z,5.37
2023-02-06T21:38:53.054Z,6.80
2023-02-06T21:41:17.901Z,5.47
2023-02-06T21:43:39.996Z,6.70
2023-02-06T21:46:02.377Z,5.40
2023-02-06T21:48:23.853Z,5.40
2023-02-06T21:50:45.375Z,5.20
2023-02-06T21:53:08.959Z,5.63
2023-02-06T21:55:32.501Z,3.97
2023-02-06T21:57:53.946Z,4.63
2023-02-06T22:00:15.787Z,4.10
2023-02-06T22:02:37.671Z,4.53
2023-02-06T22:05:00.226Z,4.67
2023-02-06T22:07:21.634Z,5.00
2023-02-06T22:09:43.298Z,4.67
2023-02-06T22:12:07.113Z,6.53
2023-02-06T22:14:28.685Z,4.37
2023-02-06T22:16:50.260Z,8.10
2023-02-06T22:19:11.807Z,6.43
2023-02-06T22:21:34.322Z,5.70
2023-02-06T22:23:58.407Z,7.17
2023-02-06T22:26:20.981Z,6.47
2023-02-06T22:28:43.504Z,6.73
2023-02-06T22:31:13.190Z,8.43
2023-02-06T22:33:35.142Z,7.70
2023-02-06T22:35:56.646Z,8.47
2023-02-06T22:38:18.122Z,9.43
2023-02-06T22:40:39.613Z,9.03
2023-02-06T22:43:01.055Z,10.93
2023-02-06T22:45:22.496Z,10.97
2023-02-06T22:47:43.948Z,10.73
2023-02-06T22:50:05.786Z,10.57
2023-02-06T22:52:46.051Z,9.97
2023-02-06T22:55:09.448Z,8.07
2023-02-06T22:57:30.975Z,10.27
2023-02-06T22:59:52.427Z,8.83
2023-02-06T23:02:13.933Z,9.07
2023-02-06T23:04:36.184Z,10.13
2023-02-06T23:06:57.757Z,9.73
2023-02-06T23:09:23.706Z,9.27
2023-02-06T23:11:45.621Z,8.53
2023-02-06T23:14:08.025Z,10.13
2023-02-06T23:16:31.680Z,9.20
2023-02-06T23:18:53.222Z,9.67
2023-02-06T23:21:16.277Z,10.07
2023-02-06T23:23:39.090Z,9.97
2023-02-06T23:26:00.671Z,9.13
2023-02-06T23:28:23.401Z,9.50
2023-02-06T23:30:44.896Z,9.90
2023-02-06T23:33:06.538Z,9.83
2023-02-06T23:35:28.024Z,10.87
2023-02-06T23:37:49.513Z,10.47
2023-02-06T23:40:11.128Z,9.97
2023-02-06T23:42:32.670Z,10.80
2023-02-06T23:44:54.884Z,10.50
2023-02-06T23:47:17.182Z,11.63
2023-02-06T23:49:38.608Z,11.93
2023-02-06T23:52:00.092Z,11.47
2023-02-06T23:54:21.571Z,10.20
2023-02-06T23:56:43.214Z,8.70
2023-02-06T23:59:05.358Z,9.90
